KEVW

Evanston-Uinta County Burns Field Airport

Evanston, Wyoming, USA
KEVW 251120Z 2512/2612 VRB06KT P6SM SKC FM251800 29010G16KT P6SM SKC FM260000 31007KT P6SM SKC FM260500 11004KT P6SM SKC
Issued Valid From Valid To
Sep-25 @ 11:20 UTC
(6 hours ago)
Sep-25 @ 12:00 UTC
(5 hours ago)
Sep-26 @ 12:00 UTC
(in 19 hours)
Sep-25 @ 12:00 to Sep-25 @ 18:00
KEVW 251120Z 2512/2612 VRB06KT P6SM SKC
Wind Visibility Clouds
Variable at 6 knots Greater than 6 miles
  • Clear skies
From Sep-25 @ 18:00 to Sep-26 @ 00:00
FM251800 29010G16KT P6SM SKC
Wind Visibility Clouds
290° at 10 knots
 Gusting to 16 knots
Greater than 6 miles
  • Clear skies
From Sep-26 @ 00:00 to Sep-26 @ 05:00
FM260000 31007KT P6SM SKC
Wind Visibility Clouds
310° at 7 knots Greater than 6 miles
  • Clear skies
From Sep-26 @ 05:00 to Sep-26 @ 12:00
FM260500 11004KT P6SM SKC
Wind Visibility Clouds
110° at 4 knots Greater than 6 miles
  • Clear skies
KEVW 251120Z 2512/2612 VRB06KT P6SM SKC FM251800 29010G16KT P6SM SKC FM260000 31007KT P6SM SKC FM260500 11004KT P6SM SKC
Issued Sep-25 @ 11:20 UTC
(6 hours ago)
Valid From Sep-25 @ 12:00 UTC
(5 hours ago)
Valid To Sep-26 @ 12:00 UTC
(in 19 hours)
Sep-25 @ 12:00 - Sep-25 @ 18:00
Wind Visibility
Variable at 6 knots Greater than 6 miles
Clouds
  • Clear skies
From Sep-25 @ 18:00 - Sep-26 @ 00:00
Wind Visibility
290° at 10 knots
 Gusting to 16 knots
Greater than 6 miles
Clouds
  • Clear skies
From Sep-26 @ 00:00 - Sep-26 @ 05:00
Wind Visibility
310° at 7 knots Greater than 6 miles
Clouds
  • Clear skies
From Sep-26 @ 05:00 - Sep-26 @ 12:00
Wind Visibility
110° at 4 knots Greater than 6 miles
Clouds
  • Clear skies